Terminal Aerodrome Forecast
Issued by NWS Medford, OR

Home | Current Version | Previous Version | Text Only | Print | Product List | Glossary On
Versions: 1 2 3 4 5 6 7 8 9 10 11 12 13 14 15 16 17 18 19
000
FTUS46 KMFR 211155
TAFMFR
TAF
KMFR 211155Z 2112/2212 03005KT 5SM -RA BR OVC040 WS020/26035KT
     FM211800 31003KT 6SM -RA BR OVC007 WS020/26035KT
     FM212100 33005KT P6SM -RA SCT007 OVC015 WS020/26035KT
     FM220300 00000KT 5SM -SHRA BR OVC007
     FM220900 00000KT 1/2SM FG OVC004=

USA.gov is the U.S. government's official web portal to all federal, state and local government web resources and services.